Time;durP1;ratioP1;P1;durP2;ratioP2;P2;SDS_P1;SDS_P2;PMS_P1;PMS_P2;Temp;Humidity;BMP_temperature;BMP_pressure;BME280_temperature;BME280_humidity;BME280_pressure;Samples;Min_cycle;Max_cycle;Signal;HPM_P1;HPM_P2
2021/12/25 00:01:44;;;;;;;11.33;5.43;;;;;7.60;95071.00;;;;8294590;28;20642;-75
2021/12/25 00:05:52;;;;;;;14.13;5.37;;;;;7.60;95079.00;;;;8284788;28;20353;-76
2021/12/25 00:09:55;;;;;;;17.93;5.53;;;;;7.60;95083.00;;;;8283328;28;20280;-76
2021/12/25 00:13:58;;;;;;;18.57;5.43;;;;;7.50;95073.00;;;;8283983;28;20333;-76
2021/12/25 00:18:03;;;;;;;11.83;5.07;;;;;7.60;95076.00;;;;8282775;28;20257;-76
2021/12/25 00:22:06;;;;;;;14.63;6.17;;;;;7.60;95070.00;;;;8285065;28;20309;-76
2021/12/25 00:26:14;;;;;;;12.30;6.20;;;;;7.60;95076.00;;;;8284918;28;20261;-76
2021/12/25 00:30:27;;;;;;;15.93;5.63;;;;;7.60;95071.00;;;;8281002;28;20233;-75
2021/12/25 00:34:31;;;;;;;13.77;6.70;;;;;7.60;95072.00;;;;8256811;28;20264;-76
2021/12/25 00:38:36;;;;;;;19.83;6.57;;;;;7.50;95073.00;;;;8256283;28;20306;-76
2021/12/25 00:42:39;;;;;;;16.00;6.00;;;;;7.60;95067.00;;;;8251947;28;20317;-76
2021/12/25 00:46:43;;;;;;;19.80;6.50;;;;;7.50;95071.00;;;;8252389;28;20255;-75
2021/12/25 00:50:47;;;;;;;14.73;6.80;;;;;7.50;95065.00;;;;8252156;28;20226;-76
2021/12/25 00:54:50;;;;;;;22.77;6.90;;;;;7.60;95063.00;;;;8244718;28;20678;-77
2021/12/25 00:58:53;;;;;;;23.23;8.47;;;;;7.60;95061.00;;;;8252423;28;20239;-77
2021/12/25 01:02:57;;;;;;;20.13;7.80;;;;;7.60;95080.00;;;;8243331;28;20322;-77
2021/12/25 01:07:02;;;;;;;20.63;7.83;;;;;7.60;95078.00;;;;8250756;28;20253;-77
2021/12/25 01:11:05;;;;;;;27.53;9.27;;;;;7.60;95077.00;;;;8251799;28;20305;-77
2021/12/25 01:15:10;;;;;;;21.97;8.47;;;;;7.60;95064.00;;;;8252512;28;20296;-78
2021/12/25 01:37:02;;;;;;;22.90;8.30;;;;;7.70;95090.00;;;;8238088;28;20658;-77
2021/12/25 01:41:17;;;;;;;20.43;8.70;;;;;7.80;95090.00;;;;8284692;28;20265;-75
2021/12/25 01:49:42;;;;;;;17.33;8.20;;;;;7.80;95085.00;;;;8284349;28;20274;-75
2021/12/25 01:53:45;;;;;;;24.87;7.97;;;;;7.80;95084.00;;;;8285081;28;20225;-76
2021/12/25 01:57:50;;;;;;;16.93;8.27;;;;;7.80;95077.00;;;;8283989;28;20608;-76
2021/12/25 02:01:54;;;;;;;36.77;8.60;;;;;7.80;95078.00;;;;8283059;28;20261;-76
2021/12/25 02:05:59;;;;;;;35.07;8.47;;;;;7.80;95075.00;;;;8280668;28;20237;-76
2021/12/25 02:10:04;;;;;;;25.83;8.77;;;;;7.80;95069.00;;;;8272970;28;20312;-76
2021/12/25 02:14:09;;;;;;;31.80;8.97;;;;;7.90;95077.00;;;;8252723;28;20289;-76
2021/12/25 02:18:17;;;;;;;31.40;8.43;;;;;7.90;95074.00;;;;8281242;28;20217;-75
2021/12/25 02:22:26;;;;;;;36.37;8.60;;;;;7.90;95076.00;;;;8280740;28;20275;-75
2021/12/25 02:26:29;;;;;;;31.53;8.53;;;;;8.00;95074.00;;;;8284708;28;20699;-76
2021/12/25 02:30:33;;;;;;;37.60;8.93;;;;;8.00;95082.00;;;;8283070;28;20253;-75
2021/12/25 02:34:37;;;;;;;340.07;15.53;;;;;7.90;95089.00;;;;8286051;28;20280;-75
2021/12/25 02:38:43;;;;;;;59.33;8.90;;;;;7.80;95078.00;;;;8286066;28;20297;-76
2021/12/25 02:42:46;;;;;;;26.57;9.30;;;;;7.70;95074.00;;;;8282927;28;20814;-76
2021/12/25 02:46:54;;;;;;;30.37;8.40;;;;;7.70;95076.00;;;;8288896;28;20302;-75
2021/12/25 02:50:57;;;;;;;32.07;8.10;;;;;7.80;95067.00;;;;8279833;28;20241;-75
2021/12/25 02:55:02;;;;;;;287.30;14.60;;;;;7.90;95073.00;;;;8288282;28;20261;-75
2021/12/25 02:59:05;;;;;;;120.53;10.63;;;;;7.90;95067.00;;;;8289000;28;20253;-76
2021/12/25 03:03:28;;;;;;;75.03;9.77;;;;;7.80;95070.00;;;;8313762;23;20243;-75
2021/12/25 03:07:31;;;;;;;413.70;18.73;;;;;7.70;95075.00;;;;8306905;28;20326;-75
2021/12/25 03:11:36;;;;;;;45.67;8.50;;;;;7.70;95070.00;;;;8282465;28;20265;-75
2021/12/25 03:15:45;;;;;;;147.60;9.67;;;;;7.60;95067.00;;;;8288003;28;20321;-75
2021/12/25 03:19:49;;;;;;;132.53;9.47;;;;;7.50;95058.00;;;;8292862;28;20659;-74
2021/12/25 03:23:53;;;;;;;22.00;6.97;;;;;7.50;95059.00;;;;8283304;28;20226;-74
2021/12/25 03:27:59;;;;;;;21.53;6.63;;;;;7.60;95066.00;;;;8286530;28;20226;-75
2021/12/25 03:32:02;;;;;;;30.50;6.97;;;;;7.70;95062.00;;;;8286918;28;20245;-75
2021/12/25 03:36:06;;;;;;;121.43;8.80;;;;;7.70;95058.00;;;;8290734;28;20645;-75
2021/12/25 03:40:11;;;;;;;20.90;6.73;;;;;7.80;95056.00;;;;8289000;28;20781;-75
2021/12/25 03:44:15;;;;;;;21.83;6.30;;;;;7.80;95057.00;;;;8286008;28;20230;-75
2021/12/25 03:48:42;;;;;;;282.00;13.57;;;;;7.80;95047.00;;;;8286877;28;20702;-75
2021/12/25 04:01:41;;;;;;;292.20;10.73;;;;;7.60;95045.00;;;;8283068;28;20305;-75
2021/12/25 04:05:47;;;;;;;245.33;11.50;;;;;7.60;95042.00;;;;8250375;28;20257;-75
2021/12/25 04:09:50;;;;;;;213.67;10.93;;;;;7.60;95038.00;;;;8261651;28;20221;-75
2021/12/25 04:13:53;;;;;;;223.63;9.17;;;;;7.40;95032.00;;;;8258143;28;20253;-75
2021/12/25 04:17:58;;;;;;;139.83;9.50;;;;;7.40;95032.00;;;;8267880;28;20683;-75
2021/12/25 04:22:05;;;;;;;275.57;12.07;;;;;7.40;95023.00;;;;8260378;28;20229;-77
2021/12/25 04:26:09;;;;;;;207.27;10.07;;;;;7.40;95036.00;;;;8264222;28;20230;-76
2021/12/25 04:30:27;;;;;;;88.40;7.17;;;;;7.40;95029.00;;;;8271086;28;20246;-76
2021/12/25 04:48:08;;;;;;;94.33;7.43;;;;;7.40;95025.00;;;;8251775;28;20252;-74
2021/12/25 05:05:20;;;;;;;364.80;14.33;;;;;7.40;95017.00;;;;8250803;28;20258;-76
2021/12/25 05:09:25;;;;;;;63.90;7.07;;;;;7.40;95025.00;;;;8250452;28;20249;-76
2021/12/25 05:13:28;;;;;;;47.57;5.67;;;;;7.50;95024.00;;;;8250632;28;20258;-75
2021/12/25 05:17:31;;;;;;;241.87;10.27;;;;;7.50;95030.00;;;;8249651;28;20295;-75
2021/12/25 05:21:34;;;;;;;110.37;8.00;;;;;7.50;95027.00;;;;8250848;28;20254;-75
2021/12/25 05:25:40;;;;;;;150.90;8.83;;;;;7.50;95023.00;;;;8249916;28;20790;-75
2021/12/25 05:29:46;;;;;;;91.47;7.73;;;;;7.50;95027.00;;;;8251450;28;20266;-75
2021/12/25 05:33:50;;;;;;;15.50;4.93;;;;;7.50;95024.00;;;;8250239;28;20758;-76
2021/12/25 05:37:57;;;;;;;168.73;8.63;;;;;7.50;95021.00;;;;8251031;28;20275;-75
2021/12/25 05:42:02;;;;;;;105.70;6.50;;;;;7.50;95006.00;;;;8250218;28;20641;-75
2021/12/25 05:46:05;;;;;;;81.97;5.57;;;;;7.40;95006.00;;;;8250090;28;20666;-75
2021/12/25 05:50:09;;;;;;;68.20;4.37;;;;;7.40;94999.00;;;;8249808;28;20260;-75
2021/12/25 05:54:13;;;;;;;96.27;5.57;;;;;7.40;95000.00;;;;8249046;28;20900;-75
2021/12/25 05:58:18;;;;;;;53.50;4.10;;;;;7.30;94997.00;;;;8249061;28;20654;-75
2021/12/25 06:02:21;;;;;;;38.60;3.80;;;;;7.20;95002.00;;;;8249927;28;20257;-75
2021/12/25 06:06:25;;;;;;;36.80;4.60;;;;;7.20;95001.00;;;;8249280;28;20293;-75
2021/12/25 06:10:28;;;;;;;70.40;4.43;;;;;7.30;95002.00;;;;8248902;28;20253;-74
2021/12/25 06:14:32;;;;;;;48.90;3.73;;;;;7.30;95002.00;;;;8250267;28;20329;-75
2021/12/25 06:18:36;;;;;;;16.47;3.10;;;;;7.40;95005.00;;;;8249644;28;20670;-75
2021/12/25 06:22:39;;;;;;;71.43;3.73;;;;;7.40;95001.00;;;;8250376;28;20688;-75
2021/12/25 06:26:43;;;;;;;10.67;2.07;;;;;7.40;95006.00;;;;8249418;28;20285;-74
2021/12/25 06:30:49;;;;;;;28.17;3.33;;;;;7.40;95012.00;;;;8249790;28;20245;-75
2021/12/25 06:34:52;;;;;;;8.37;2.67;;;;;7.30;95018.00;;;;8251449;28;20238;-75
2021/12/25 06:38:55;;;;;;;33.30;3.70;;;;;7.30;95012.00;;;;8250757;28;20725;-73
2021/12/25 06:42:59;;;;;;;3.87;1.63;;;;;7.30;95021.00;;;;8249488;28;20231;-74
2021/12/25 06:47:04;;;;;;;6.60;2.20;;;;;7.40;95012.00;;;;8249898;28;20695;-74
2021/12/25 06:51:08;;;;;;;19.50;2.17;;;;;7.30;95015.00;;;;8250564;28;20258;-73
2021/12/25 06:55:13;;;;;;;2.90;1.50;;;;;7.30;95020.00;;;;8249559;28;20265;-74
2021/12/25 06:59:17;;;;;;;1.90;1.50;;;;;7.30;95031.00;;;;8246676;28;20234;-74
2021/12/25 07:03:21;;;;;;;3.90;1.73;;;;;7.40;95033.00;;;;8247285;28;20337;-73
2021/12/25 07:07:24;;;;;;;1.53;1.43;;;;;7.40;95033.00;;;;8249209;28;20309;-73
2021/12/25 07:11:27;;;;;;;5.33;2.43;;;;;7.40;95030.00;;;;8249766;28;20258;-73
2021/12/25 07:15:31;;;;;;;22.87;6.57;;;;;7.40;95021.00;;;;8247622;28;20333;-74
2021/12/25 07:19:35;;;;;;;0.90;0.90;;;;;7.40;95014.00;;;;8248473;28;20214;-74
2021/12/25 07:23:39;;;;;;;1.07;1.07;;;;;7.40;95019.00;;;;8255415;28;20258;-73
2021/12/25 07:27:42;;;;;;;0.80;0.80;;;;;7.40;95020.00;;;;8251991;28;20281;-74
2021/12/25 07:31:45;;;;;;;0.53;0.53;;;;;7.30;95012.00;;;;8254390;28;20234;-74
2021/12/25 07:35:50;;;;;;;0.50;0.50;;;;;7.20;95017.00;;;;8263467;28;20631;-74
2021/12/25 07:39:53;;;;;;;0.50;0.50;;;;;7.10;95022.00;;;;8263411;28;20349;-74
2021/12/25 07:43:56;;;;;;;0.50;0.50;;;;;7.10;95027.00;;;;8257450;28;20631;-73
2021/12/25 07:48:01;;;;;;;0.53;0.53;;;;;7.10;95020.00;;;;8263201;28;20313;-74
2021/12/25 07:52:07;;;;;;;0.80;0.80;;;;;7.10;95022.00;;;;8268706;28;20237;-74
2021/12/25 07:56:11;;;;;;;1.57;1.47;;;;;7.10;95016.00;;;;8254391;28;20237;-75
2021/12/25 08:00:15;;;;;;;0.47;0.47;;;;;7.10;95017.00;;;;8259401;28;20262;-75
2021/12/25 08:04:19;;;;;;;0.50;0.50;;;;;7.10;95019.00;;;;8236466;28;20317;-77
2021/12/25 08:08:23;;;;;;;1.00;1.00;;;;;7.10;95017.00;;;;8254496;28;20924;-77
2021/12/25 08:12:27;;;;;;;2.97;1.10;;;;;7.20;95015.00;;;;8250697;28;20219;-75
2021/12/25 08:16:30;;;;;;;1.53;1.10;;;;;7.20;95026.00;;;;8250102;28;20312;-75
2021/12/25 08:20:35;;;;;;;1.47;0.83;;;;;7.30;95031.00;;;;8255068;28;20273;-75
2021/12/25 08:24:40;;;;;;;2.70;1.03;;;;;7.40;95029.00;;;;8252545;28;20872;-74
2021/12/25 08:28:43;;;;;;;0.77;0.77;;;;;7.40;95034.00;;;;8265551;28;20314;-75
2021/12/25 08:32:50;;;;;;;0.50;0.50;;;;;7.40;95039.00;;;;8258878;28;20250;-74
2021/12/25 08:36:53;;;;;;;0.63;0.63;;;;;7.40;95040.00;;;;8267466;28;20233;-73
2021/12/25 08:40:57;;;;;;;0.40;0.40;;;;;7.40;95042.00;;;;8268147;28;20312;-74
2021/12/25 08:45:10;;;;;;;0.40;0.40;;;;;7.40;95034.00;;;;8264450;28;20333;-77
2021/12/25 08:49:16;;;;;;;0.40;0.40;;;;;7.40;95044.00;;;;8261326;28;20276;-77
2021/12/25 08:53:21;;;;;;;0.40;0.40;;;;;7.50;95045.00;;;;8257661;28;20230;-77
2021/12/25 08:57:25;;;;;;;0.40;0.40;;;;;7.60;95047.00;;;;8259103;28;20269;-77
2021/12/25 09:01:29;;;;;;;0.40;0.40;;;;;7.50;95042.00;;;;8254656;28;20269;-77
2021/12/25 09:05:33;;;;;;;0.40;0.40;;;;;7.50;95050.00;;;;8262595;28;20233;-77
2021/12/25 09:09:37;;;;;;;0.40;0.40;;;;;7.50;95052.00;;;;8262139;28;20234;-76
2021/12/25 09:13:41;;;;;;;0.40;0.40;;;;;7.50;95050.00;;;;8260212;28;20655;-77
2021/12/25 09:17:46;;;;;;;0.40;0.40;;;;;7.60;95059.00;;;;8255728;28;20266;-77
2021/12/25 09:21:49;;;;;;;0.40;0.40;;;;;7.50;95059.00;;;;8261409;28;20706;-77
2021/12/25 09:25:53;;;;;;;0.40;0.40;;;;;7.30;95065.00;;;;8248466;28;20313;-77
2021/12/25 09:29:58;;;;;;;0.40;0.40;;;;;7.10;95058.00;;;;8245965;28;20309;-78
2021/12/25 09:34:01;;;;;;;0.50;0.50;;;;;6.90;95065.00;;;;8261828;28;20326;-78
2021/12/25 09:38:04;;;;;;;0.40;0.40;;;;;6.80;95074.00;;;;8250194;28;20226;-77
2021/12/25 09:42:09;;;;;;;0.40;0.40;;;;;6.70;95082.00;;;;8258017;28;20317;-78
2021/12/25 09:46:14;;;;;;;0.40;0.40;;;;;6.60;95073.00;;;;8253071;28;20261;-76
2021/12/25 09:50:17;;;;;;;0.40;0.40;;;;;6.50;95077.00;;;;8262455;28;20249;-77
2021/12/25 09:54:21;;;;;;;0.40;0.40;;;;;6.30;95082.00;;;;8253886;28;20305;-78
2021/12/25 09:58:24;;;;;;;0.30;0.30;;;;;6.20;95077.00;;;;8262346;28;20713;-78
2021/12/25 10:02:29;;;;;;;0.40;0.40;;;;;6.10;95080.00;;;;8249967;28;20328;-78
2021/12/25 10:06:35;;;;;;;0.40;0.40;;;;;6.00;95071.00;;;;8255113;28;20594;-75
2021/12/25 10:10:42;;;;;;;0.40;0.40;;;;;5.80;95079.00;;;;8256679;28;20329;-76
2021/12/25 10:14:54;;;;;;;0.47;0.47;;;;;5.60;95081.00;;;;8255176;28;20325;-76
2021/12/25 10:19:15;;;;;;;0.40;0.40;;;;;5.40;95079.00;;;;8251197;28;20259;-76
2021/12/25 10:23:25;;;;;;;0.40;0.40;;;;;5.30;95081.00;;;;8256329;28;20222;-77
2021/12/25 10:27:28;;;;;;;0.40;0.40;;;;;5.20;95089.00;;;;8263012;28;20999;-77
2021/12/25 10:31:35;;;;;;;0.40;0.40;;;;;5.10;95086.00;;;;8250193;28;20316;-77
2021/12/25 10:35:40;;;;;;;0.30;0.30;;;;;5.00;95079.00;;;;8251432;28;20304;-77
2021/12/25 10:39:44;;;;;;;0.40;0.40;;;;;4.90;95088.00;;;;8251749;28;20625;-77
2021/12/25 10:43:49;;;;;;;0.40;0.40;;;;;4.70;95083.00;;;;8252938;28;20257;-77
2021/12/25 10:48:05;;;;;;;0.40;0.40;;;;;4.60;95090.00;;;;8260235;28;20314;-76
2021/12/25 10:52:16;;;;;;;0.40;0.40;;;;;4.60;95090.00;;;;8257082;28;20256;-75
2021/12/25 10:56:35;;;;;;;0.40;0.40;;;;;4.60;95090.00;;;;8266099;28;20218;-75
2021/12/25 11:00:38;;;;;;;0.40;0.40;;;;;4.50;95087.00;;;;8266626;28;20319;-76
2021/12/25 11:04:41;;;;;;;0.40;0.40;;;;;4.50;95083.00;;;;8257052;28;20252;-76
2021/12/25 11:08:47;;;;;;;0.40;0.40;;;;;4.60;95073.00;;;;8259649;28;20316;-76
2021/12/25 11:12:51;;;;;;;0.40;0.40;;;;;4.60;95076.00;;;;8265753;28;21056;-77
2021/12/25 11:16:54;;;;;;;0.50;0.50;;;;;4.50;95082.00;;;;8256926;28;20342;-76
2021/12/25 11:20:59;;;;;;;0.53;0.53;;;;;4.40;95081.00;;;;8259152;28;20908;-77
2021/12/25 11:25:08;;;;;;;0.50;0.50;;;;;4.40;95079.00;;;;8258536;28;20232;-76
2021/12/25 11:29:14;;;;;;;0.40;0.40;;;;;4.30;95079.00;;;;8257959;28;20261;-77
2021/12/25 11:33:18;;;;;;;0.40;0.40;;;;;4.10;95071.00;;;;8247207;28;20758;-78
2021/12/25 11:37:22;;;;;;;0.50;0.50;;;;;4.10;95076.00;;;;8254774;28;20234;-77
2021/12/25 11:41:29;;;;;;;0.50;0.50;;;;;4.10;95070.00;;;;8251728;28;20311;-76
2021/12/25 11:45:36;;;;;;;0.40;0.40;;;;;4.10;95069.00;;;;8248388;28;20244;-78
2021/12/25 11:49:54;;;;;;;0.40;0.40;;;;;4.00;95059.00;;;;8256965;28;21757;-79
2021/12/25 11:54:13;;;;;;;0.40;0.40;;;;;4.00;95058.00;;;;8254913;28;20314;-78
2021/12/25 11:58:39;;;;;;;0.40;0.40;;;;;4.00;95055.00;;;;8247032;28;20225;-79
2021/12/25 12:02:43;;;;;;;0.40;0.40;;;;;4.00;95060.00;;;;8238087;28;20250;-77
2021/12/25 12:07:06;;;;;;;0.40;0.40;;;;;4.00;95073.00;;;;8245233;28;20798;-77
2021/12/25 12:11:20;;;;;;;0.40;0.40;;;;;3.90;95069.00;;;;8237935;28;20299;-78
2021/12/25 12:15:25;;;;;;;0.40;0.40;;;;;3.90;95067.00;;;;8245333;28;20268;-79
2021/12/25 12:19:45;;;;;;;0.40;0.40;;;;;3.80;95057.00;;;;8243131;28;20225;-78
2021/12/25 12:23:56;;;;;;;0.40;0.40;;;;;3.70;95057.00;;;;8244826;28;21505;-77
2021/12/25 12:28:01;;;;;;;0.40;0.40;;;;;3.60;95076.00;;;;8260519;28;20662;-79
2021/12/25 12:32:07;;;;;;;0.40;0.40;;;;;3.50;95068.00;;;;8250472;28;20225;-78
2021/12/25 12:36:25;;;;;;;0.40;0.40;;;;;3.50;95075.00;;;;8242770;28;20834;-78
2021/12/25 12:40:31;;;;;;;0.50;0.50;;;;;3.40;95067.00;;;;8246277;28;20308;-78
2021/12/25 12:44:36;;;;;;;0.40;0.40;;;;;3.40;95074.00;;;;8258347;28;20227;-78
2021/12/25 12:48:40;;;;;;;0.40;0.40;;;;;3.30;95085.00;;;;8259962;28;20307;-80
2021/12/25 12:52:43;;;;;;;0.43;0.43;;;;;3.30;95081.00;;;;8251607;28;20294;-78
2021/12/25 12:57:02;;;;;;;0.40;0.40;;;;;3.30;95083.00;;;;8252145;28;20275;-78
2021/12/25 13:01:12;;;;;;;0.40;0.40;;;;;3.20;95084.00;;;;8243660;28;20307;-78
2021/12/25 13:05:20;;;;;;;0.40;0.40;;;;;3.10;95095.00;;;;8249393;28;20235;-77
2021/12/25 13:09:23;;;;;;;0.40;0.40;;;;;3.10;95112.00;;;;8253323;28;20317;-78
2021/12/25 13:13:29;;;;;;;0.30;0.30;;;;;3.00;95106.00;;;;8251238;28;20982;-78
2021/12/25 13:17:35;;;;;;;0.40;0.40;;;;;3.00;95117.00;;;;8246028;28;20834;-75
2021/12/25 13:21:40;;;;;;;0.40;0.40;;;;;3.00;95131.00;;;;8249249;28;20315;-76
2021/12/25 13:25:52;;;;;;;0.40;0.40;;;;;2.90;95126.00;;;;8248945;28;20325;-78
2021/12/25 13:29:56;;;;;;;0.40;0.40;;;;;2.80;95133.00;;;;8250337;28;20307;-75
2021/12/25 13:34:01;;;;;;;0.47;0.47;;;;;2.80;95136.00;;;;8262383;28;20248;-77
2021/12/25 13:38:06;;;;;;;0.40;0.40;;;;;2.70;95128.00;;;;8245830;28;20257;-77
2021/12/25 13:42:13;;;;;;;0.40;0.40;;;;;2.80;95135.00;;;;8262317;28;20268;-77
2021/12/25 13:46:17;;;;;;;0.40;0.40;;;;;2.70;95151.00;;;;8258937;28;20315;-77
2021/12/25 13:50:22;;;;;;;0.40;0.40;;;;;2.70;95162.00;;;;8242085;28;20233;-78
2021/12/25 13:54:27;;;;;;;0.40;0.40;;;;;2.70;95168.00;;;;8254622;28;20898;-77
2021/12/25 13:58:30;;;;;;;0.40;0.40;;;;;2.70;95166.00;;;;8250103;28;20256;-78
2021/12/25 14:02:33;;;;;;;0.40;0.40;;;;;2.60;95180.00;;;;8257313;28;20276;-77
2021/12/25 14:06:37;;;;;;;1.23;1.23;;;;;2.60;95171.00;;;;8252432;28;20924;-77
2021/12/25 14:10:44;;;;;;;0.50;0.50;;;;;2.50;95178.00;;;;8255773;28;20380;-78
2021/12/25 14:14:47;;;;;;;0.40;0.40;;;;;2.50;95186.00;;;;8254694;28;20224;-77
2021/12/25 14:18:51;;;;;;;0.40;0.40;;;;;2.40;95181.00;;;;8246385;28;20268;-77
2021/12/25 14:23:01;;;;;;;0.40;0.40;;;;;2.40;95194.00;;;;8246903;28;20353;-76
2021/12/25 14:27:11;;;;;;;0.40;0.40;;;;;2.30;95204.00;;;;8243037;28;20338;-77
2021/12/25 14:31:17;;;;;;;0.40;0.40;;;;;2.30;95208.00;;;;8250018;28;20330;-77
2021/12/25 14:35:22;;;;;;;0.40;0.40;;;;;2.30;95209.00;;;;8252367;28;20302;-76
2021/12/25 14:39:27;;;;;;;0.40;0.40;;;;;2.30;95207.00;;;;8263056;28;20229;-77
2021/12/25 14:43:33;;;;;;;0.40;0.40;;;;;2.30;95205.00;;;;8243413;28;20654;-78
2021/12/25 14:47:47;;;;;;;0.40;0.40;;;;;2.30;95195.00;;;;8248741;28;20247;-78
2021/12/25 14:51:50;;;;;;;0.50;0.50;;;;;2.30;95197.00;;;;8249060;28;20306;-78
2021/12/25 14:55:56;;;;;;;0.40;0.40;;;;;2.20;95202.00;;;;8254172;28;20252;-79
2021/12/25 15:00:02;;;;;;;0.40;0.40;;;;;2.20;95210.00;;;;8250764;28;20230;-79
2021/12/25 15:04:09;;;;;;;0.40;0.40;;;;;2.20;95218.00;;;;8260126;28;20326;-80
2021/12/25 15:08:32;;;;;;;0.40;0.40;;;;;2.20;95230.00;;;;8251382;28;20323;-80
2021/12/25 15:12:36;;;;;;;0.40;0.40;;;;;2.20;95219.00;;;;8251046;28;20255;-80
2021/12/25 15:16:44;;;;;;;0.40;0.40;;;;;2.20;95221.00;;;;8239768;28;20307;-85
2021/12/25 15:20:49;;;;;;;0.40;0.40;;;;;2.20;95227.00;;;;8253562;28;20239;-83
2021/12/25 15:24:54;;;;;;;0.40;0.40;;;;;2.20;95227.00;;;;8265610;28;20311;-86
2021/12/25 15:29:00;;;;;;;0.40;0.40;;;;;2.20;95218.00;;;;8258104;28;20503;-86
2021/12/25 15:33:07;;;;;;;0.47;0.47;;;;;2.10;95233.00;;;;8250375;28;20231;-88
2021/12/25 15:37:22;;;;;;;0.40;0.40;;;;;2.10;95231.00;;;;8261084;28;20230;-88
2021/12/25 15:41:26;;;;;;;0.40;0.40;;;;;2.10;95232.00;;;;8255541;28;20251;-90
2021/12/25 15:45:30;;;;;;;0.40;0.40;;;;;2.10;95234.00;;;;8257878;28;20224;-88
2021/12/25 15:49:35;;;;;;;0.50;0.50;;;;;2.00;95241.00;;;;8257239;28;20819;-88
2021/12/25 15:53:39;;;;;;;0.40;0.40;;;;;2.00;95244.00;;;;8254704;28;20257;-88
2021/12/25 15:57:46;;;;;;;0.40;0.40;;;;;2.00;95238.00;;;;8250531;28;20322;-85
2021/12/25 16:01:49;;;;;;;0.40;0.40;;;;;2.00;95248.00;;;;8261615;28;20750;-87
2021/12/25 16:05:54;;;;;;;0.40;0.40;;;;;1.90;95272.00;;;;8265816;28;20220;-88
2021/12/25 16:09:57;;;;;;;0.40;0.40;;;;;1.90;95272.00;;;;8270564;28;20495;-86
2021/12/25 16:14:01;;;;;;;0.40;0.40;;;;;1.90;95273.00;;;;8266739;28;20238;-88
2021/12/25 16:18:04;;;;;;;0.40;0.40;;;;;1.80;95280.00;;;;8253306;28;20247;-86
2021/12/25 16:22:09;;;;;;;0.50;0.50;;;;;1.80;95285.00;;;;8262017;28;20231;-87
2021/12/25 16:26:13;;;;;;;0.40;0.40;;;;;1.80;95289.00;;;;8249138;28;20283;-86
2021/12/25 16:30:27;;;;;;;0.50;0.50;;;;;1.80;95299.00;;;;8257644;28;20254;-84
2021/12/25 16:34:30;;;;;;;0.40;0.40;;;;;1.70;95288.00;;;;8251934;28;20666;-83
2021/12/25 16:38:36;;;;;;;0.40;0.40;;;;;1.70;95285.00;;;;8249477;28;20661;-83
2021/12/25 16:42:40;;;;;;;0.40;0.40;;;;;1.70;95284.00;;;;8256597;28;20263;-82
2021/12/25 16:46:44;;;;;;;0.50;0.50;;;;;1.70;95292.00;;;;8257846;28;20253;-81
2021/12/25 16:50:47;;;;;;;0.40;0.40;;;;;1.60;95290.00;;;;8266757;28;20315;-80
2021/12/25 16:54:52;;;;;;;0.50;0.50;;;;;1.60;95297.00;;;;8251286;28;20227;-79
2021/12/25 16:58:56;;;;;;;0.43;0.43;;;;;1.60;95289.00;;;;8249112;28;20272;-78
2021/12/25 17:03:01;;;;;;;0.40;0.40;;;;;1.60;95287.00;;;;8251021;28;20320;-77
2021/12/25 17:07:08;;;;;;;0.40;0.40;;;;;1.60;95291.00;;;;8244691;28;20240;-77
2021/12/25 17:11:13;;;;;;;0.40;0.40;;;;;1.50;95293.00;;;;8243662;28;20231;-77
2021/12/25 17:15:18;;;;;;;0.40;0.40;;;;;1.50;95306.00;;;;8243237;28;20262;-76
2021/12/25 17:19:21;;;;;;;0.40;0.40;;;;;1.50;95303.00;;;;8240114;28;20227;-75
2021/12/25 17:23:27;;;;;;;0.40;0.40;;;;;1.50;95307.00;;;;8241138;28;20263;-75
2021/12/25 17:27:32;;;;;;;0.40;0.40;;;;;1.50;95301.00;;;;8243701;28;20260;-73
2021/12/25 17:31:35;;;;;;;0.40;0.40;;;;;1.50;95315.00;;;;8249203;28;20308;-73
2021/12/25 17:35:39;;;;;;;0.40;0.40;;;;;1.50;95304.00;;;;8242703;28;20218;-73
2021/12/25 17:39:42;;;;;;;0.43;0.43;;;;;1.50;95304.00;;;;8249516;28;20250;-72
2021/12/25 17:43:47;;;;;;;0.47;0.47;;;;;1.50;95296.00;;;;8260927;28;20260;-72
2021/12/25 17:47:51;;;;;;;0.40;0.40;;;;;1.50;95305.00;;;;8250906;28;20766;-73
2021/12/25 17:51:54;;;;;;;0.40;0.40;;;;;1.50;95300.00;;;;8252242;28;20897;-73
2021/12/25 17:55:58;;;;;;;0.40;0.40;;;;;1.50;95306.00;;;;8246790;28;20321;-73
2021/12/25 18:00:06;;;;;;;0.40;0.40;;;;;1.40;95300.00;;;;8256000;28;20242;-72
2021/12/25 18:04:09;;;;;;;0.50;0.50;;;;;1.40;95311.00;;;;8258928;28;20258;-73
2021/12/25 18:08:13;;;;;;;0.40;0.40;;;;;1.40;95314.00;;;;8250768;28;20235;-72
2021/12/25 18:12:18;;;;;;;0.50;0.50;;;;;1.40;95316.00;;;;8254953;28;20255;-72
2021/12/25 18:16:23;;;;;;;0.50;0.50;;;;;1.50;95331.00;;;;8245584;28;20285;-72
2021/12/25 18:20:29;;;;;;;0.40;0.40;;;;;1.40;95319.00;;;;8250339;28;20239;-72
2021/12/25 18:24:32;;;;;;;0.40;0.40;;;;;1.40;95333.00;;;;8247136;28;20232;-71
2021/12/25 18:28:35;;;;;;;0.50;0.50;;;;;1.40;95341.00;;;;8256353;28;20272;-71
2021/12/25 18:32:41;;;;;;;0.50;0.50;;;;;1.40;95349.00;;;;8242521;28;20223;-72
2021/12/25 18:36:44;;;;;;;0.50;0.50;;;;;1.40;95343.00;;;;8252025;28;20251;-71
2021/12/25 18:40:49;;;;;;;0.50;0.50;;;;;1.40;95348.00;;;;8250608;28;20234;-72
2021/12/25 18:44:52;;;;;;;0.50;0.50;;;;;1.30;95345.00;;;;8261009;28;20239;-72
2021/12/25 18:48:58;;;;;;;0.50;0.50;;;;;1.40;95349.00;;;;8255771;28;20868;-72
2021/12/25 18:53:02;;;;;;;0.40;0.40;;;;;1.30;95351.00;;;;8253793;28;20251;-73
2021/12/25 18:57:06;;;;;;;0.40;0.40;;;;;1.30;95355.00;;;;8246832;28;20254;-74
2021/12/25 19:01:09;;;;;;;0.47;0.47;;;;;1.30;95364.00;;;;8210930;28;20320;-73
2021/12/25 19:05:15;;;;;;;0.50;0.50;;;;;1.30;95352.00;;;;8209713;28;20227;-73
2021/12/25 19:09:18;;;;;;;0.50;0.50;;;;;1.30;95359.00;;;;8201552;28;20259;-74
2021/12/25 19:13:22;;;;;;;0.50;0.50;;;;;1.30;95356.00;;;;8206806;28;20224;-74
2021/12/25 19:17:25;;;;;;;0.50;0.50;;;;;1.30;95349.00;;;;8211087;28;20265;-73
2021/12/25 19:21:30;;;;;;;0.50;0.50;;;;;1.20;95348.00;;;;8213533;28;20259;-73
2021/12/25 19:25:34;;;;;;;0.50;0.50;;;;;1.20;95347.00;;;;8211254;28;20255;-73
2021/12/25 19:29:37;;;;;;;0.40;0.40;;;;;1.20;95354.00;;;;8209898;28;20269;-73
2021/12/25 19:33:41;;;;;;;0.50;0.50;;;;;1.20;95348.00;;;;8214422;28;20310;-73
2021/12/25 19:37:46;;;;;;;0.40;0.40;;;;;1.20;95337.00;;;;8213903;28;20641;-72
2021/12/25 19:41:49;;;;;;;0.40;0.40;;;;;1.20;95340.00;;;;8214604;28;20267;-73
2021/12/25 19:45:55;;;;;;;0.40;0.40;;;;;1.10;95356.00;;;;8211998;28;20314;-74
2021/12/25 19:50:02;;;;;;;0.40;0.40;;;;;1.10;95351.00;;;;8235013;28;20235;-75
2021/12/25 19:54:07;;;;;;;0.40;0.40;;;;;1.10;95354.00;;;;8217093;28;20730;-75
2021/12/25 19:58:11;;;;;;;0.40;0.40;;;;;1.00;95351.00;;;;8214135;28;20333;-75
2021/12/25 20:02:14;;;;;;;0.40;0.40;;;;;1.00;95356.00;;;;8214155;28;20245;-75
2021/12/25 20:06:19;;;;;;;0.40;0.40;;;;;1.00;95354.00;;;;8212643;28;20276;-75
2021/12/25 20:10:24;;;;;;;0.40;0.40;;;;;0.90;95356.00;;;;8214594;28;20239;-76
2021/12/25 20:14:28;;;;;;;0.50;0.50;;;;;0.90;95357.00;;;;8212440;28;20700;-78
2021/12/25 20:18:32;;;;;;;0.40;0.40;;;;;1.00;95356.00;;;;8204273;28;20736;-75
2021/12/25 20:22:35;;;;;;;0.50;0.50;;;;;1.00;95369.00;;;;8217281;28;20744;-77
2021/12/25 20:26:40;;;;;;;0.50;0.50;;;;;1.00;95372.00;;;;8216416;28;20263;-77
2021/12/25 20:30:45;;;;;;;0.40;0.40;;;;;1.10;95381.00;;;;8221051;28;20249;-76
2021/12/25 20:34:49;;;;;;;0.60;0.60;;;;;1.10;95376.00;;;;8252942;28;20226;-76
2021/12/25 20:38:53;;;;;;;0.40;0.40;;;;;1.10;95386.00;;;;8249771;28;20285;-81
2021/12/25 20:42:59;;;;;;;0.40;0.40;;;;;1.10;95384.00;;;;8257600;28;20262;-82
2021/12/25 20:47:03;;;;;;;0.40;0.40;;;;;1.10;95379.00;;;;8254829;28;20230;-83
2021/12/25 20:51:09;;;;;;;0.50;0.50;;;;;1.10;95377.00;;;;8256260;28;20763;-81
2021/12/25 20:55:13;;;;;;;0.40;0.40;;;;;1.10;95374.00;;;;8252868;28;20294;-79
2021/12/25 20:59:18;;;;;;;0.50;0.50;;;;;1.10;95385.00;;;;8224408;28;20254;-78
2021/12/25 21:03:23;;;;;;;0.40;0.40;;;;;1.10;95386.00;;;;8260051;28;20325;-78
2021/12/25 21:07:27;;;;;;;0.40;0.40;;;;;1.10;95393.00;;;;8246607;28;20759;-78
2021/12/25 21:11:31;;;;;;;0.40;0.40;;;;;1.20;95391.00;;;;8258293;28;20259;-77
2021/12/25 21:15:36;;;;;;;0.50;0.50;;;;;1.20;95394.00;;;;8249201;28;20626;-76
2021/12/25 21:19:40;;;;;;;0.40;0.40;;;;;1.20;95377.00;;;;8249096;28;20254;-76
2021/12/25 21:23:43;;;;;;;0.40;0.40;;;;;1.30;95375.00;;;;8256379;28;20310;-76
2021/12/25 21:27:47;;;;;;;0.50;0.50;;;;;1.30;95373.00;;;;8252507;28;20227;-75
2021/12/25 21:31:51;;;;;;;0.40;0.40;;;;;1.20;95374.00;;;;8259689;28;20252;-76
2021/12/25 21:35:55;;;;;;;0.40;0.40;;;;;1.20;95377.00;;;;8253020;28;20343;-74